createdAt,value
2019-03-30T00:00:15.440Z,5.85
2019-03-30T00:04:15.337Z,5.90
2019-03-30T00:05:15.719Z,5.91
2019-03-30T00:06:15.312Z,5.88
2019-03-30T00:07:15.260Z,5.88
2019-03-30T00:08:15.243Z,5.82
2019-03-30T00:09:15.537Z,5.79
2019-03-30T00:10:15.188Z,5.82
2019-03-30T00:12:15.465Z,5.75
2019-03-30T00:14:15.090Z,5.62
2019-03-30T00:15:15.068Z,5.76
2019-03-30T00:16:15.070Z,5.70
2019-03-30T00:18:15.727Z,5.76
2019-03-30T00:19:15.286Z,5.82
2019-03-30T00:21:15.037Z,5.95
2019-03-30T00:22:14.918Z,6.05
2019-03-30T00:23:14.886Z,5.97
2019-03-30T00:24:14.888Z,6.03
2019-03-30T00:25:14.842Z,6.06
2019-03-30T00:27:15.089Z,6.00
2019-03-30T00:28:14.760Z,6.08
2019-03-30T00:29:14.741Z,6.08
2019-03-30T00:30:14.767Z,6.13
2019-03-30T00:31:14.702Z,6.13
2019-03-30T00:33:14.646Z,6.12
2019-03-30T00:34:14.915Z,6.08
2019-03-30T00:35:14.592Z,6.06
2019-03-30T00:36:14.695Z,6.11
2019-03-30T00:38:14.629Z,6.12
2019-03-30T00:39:14.619Z,6.12
2019-03-30T00:40:14.485Z,6.12
2019-03-30T00:41:14.903Z,6.24
2019-03-30T00:42:14.429Z,6.27
2019-03-30T00:43:14.402Z,6.35
2019-03-30T00:45:14.383Z,6.37
2019-03-30T00:46:14.379Z,6.34
2019-03-30T00:48:14.288Z,6.45
2019-03-30T00:49:14.585Z,6.47
2019-03-30T00:52:14.594Z,6.34
2019-03-30T00:53:14.170Z,6.21
2019-03-30T00:55:15.026Z,6.13
2019-03-30T00:59:14.533Z,6.34
2019-03-30T01:00:14.362Z,6.13
2019-03-30T01:01:14.039Z,6.15
2019-03-30T01:02:13.963Z,6.11
2019-03-30T01:03:14.296Z,6.08
2019-03-30T01:04:14.005Z,5.98
2019-03-30T01:07:13.839Z,6.42
2019-03-30T01:08:14.032Z,6.45
2019-03-30T01:10:13.868Z,6.40
2019-03-30T01:12:14.028Z,6.21
2019-03-30T01:13:13.800Z,6.11
2019-03-30T01:14:13.706Z,6.12
2019-03-30T01:15:13.706Z,6.05
2019-03-30T01:16:13.769Z,5.95
2019-03-30T01:17:13.596Z,5.94
2019-03-30T01:18:13.846Z,5.98
2019-03-30T01:20:13.529Z,5.97
2019-03-30T01:21:13.511Z,5.93
2019-03-30T01:22:13.513Z,5.79
2019-03-30T01:23:13.454Z,5.88
2019-03-30T01:25:13.811Z,5.82
2019-03-30T01:28:13.490Z,6.18
2019-03-30T01:31:14.265Z,6.38
2019-03-30T01:32:13.279Z,6.42
2019-03-30T01:33:13.215Z,6.52
2019-03-30T01:34:13.312Z,6.50
2019-03-30T01:35:13.252Z,6.52
2019-03-30T01:36:13.147Z,6.57
2019-03-30T01:38:13.432Z,6.63
2019-03-30T01:39:13.492Z,6.57
2019-03-30T01:40:13.058Z,6.57
2019-03-30T01:41:13.034Z,6.47
2019-03-30T01:42:13.005Z,6.42
2019-03-30T01:43:12.978Z,6.24
2019-03-30T01:44:13.256Z,6.13
2019-03-30T01:45:12.931Z,6.08
2019-03-30T01:46:12.911Z,5.97
2019-03-30T01:47:12.991Z,5.93
2019-03-30T01:48:12.875Z,5.80
2019-03-30T01:49:12.846Z,5.84
2019-03-30T01:50:17.588Z,5.73
2019-03-30T01:51:13.091Z,5.66
2019-03-30T01:54:12.724Z,5.62
2019-03-30T01:55:12.802Z,5.52
2019-03-30T01:56:12.678Z,5.55
2019-03-30T01:57:12.771Z,5.55
2019-03-30T01:58:12.957Z,5.61
2019-03-30T01:59:12.652Z,5.48
2019-03-30T02:00:12.589Z,5.50
2019-03-30T02:01:12.568Z,5.43
2019-03-30T02:02:12.532Z,5.43
2019-03-30T02:03:12.511Z,5.41
2019-03-30T02:04:12.590Z,5.32
2019-03-30T02:05:12.835Z,5.41
2019-03-30T02:06:12.467Z,5.50
2019-03-30T02:07:12.410Z,5.47
2019-03-30T02:08:12.394Z,5.55
2019-03-30T02:09:12.418Z,5.52
2019-03-30T02:10:12.341Z,5.65
2019-03-30T02:11:12.515Z,5.58
2019-03-30T02:14:12.596Z,5.50
2019-03-30T02:15:12.223Z,5.50
2019-03-30T02:16:12.206Z,5.65
2019-03-30T02:17:12.296Z,5.52
2019-03-30T02:18:12.205Z,5.57
2019-03-30T02:19:12.137Z,5.52
2019-03-30T02:20:12.111Z,5.47
2019-03-30T02:21:12.414Z,5.50
2019-03-30T02:22:12.076Z,5.44
2019-03-30T02:23:12.049Z,5.50
2019-03-30T02:24:12.213Z,5.44
2019-03-30T02:27:12.338Z,5.27
2019-03-30T02:28:12.220Z,5.30
2019-03-30T02:29:11.887Z,5.14
2019-03-30T02:30:11.867Z,5.12
2019-03-30T02:31:11.842Z,5.03
2019-03-30T02:32:11.920Z,5.07
2019-03-30T02:33:11.792Z,5.06
2019-03-30T02:34:12.169Z,4.98
2019-03-30T02:35:11.744Z,4.91
2019-03-30T02:36:11.723Z,4.91
2019-03-30T02:37:11.695Z,4.83
2019-03-30T02:38:11.680Z,4.86
2019-03-30T02:39:11.951Z,4.79
2019-03-30T02:40:11.929Z,4.78
2019-03-30T02:41:11.603Z,4.72
2019-03-30T02:42:11.582Z,4.77
2019-03-30T02:43:11.575Z,4.72
2019-03-30T02:44:11.734Z,4.77
2019-03-30T02:45:11.607Z,4.72
2019-03-30T02:46:11.736Z,4.77
2019-03-30T02:47:11.455Z,4.67
2019-03-30T02:48:11.441Z,4.72
2019-03-30T02:49:11.478Z,4.67
2019-03-30T02:50:11.383Z,4.64
2019-03-30T02:51:11.359Z,4.71
2019-03-30T02:52:11.638Z,4.89
2019-03-30T02:53:11.313Z,4.91
2019-03-30T02:54:11.285Z,5.06
2019-03-30T02:55:12.758Z,5.29
2019-03-30T02:56:11.240Z,5.39
2019-03-30T02:57:11.313Z,5.44
2019-03-30T02:58:11.445Z,5.58
2019-03-30T03:00:11.150Z,5.62
2019-03-30T03:01:11.220Z,5.51
2019-03-30T03:02:11.098Z,5.41
2019-03-30T03:03:11.072Z,5.39
2019-03-30T03:05:11.394Z,5.34
2019-03-30T03:06:11.124Z,5.29
2019-03-30T03:07:11.089Z,5.15
2019-03-30T03:08:11.053Z,5.25
2019-03-30T03:09:10.926Z,5.30
2019-03-30T03:10:11.059Z,5.27
2019-03-30T03:12:11.878Z,5.29
2019-03-30T03:13:10.830Z,5.43
2019-03-30T03:14:10.808Z,5.54
2019-03-30T03:15:10.807Z,5.52
2019-03-30T03:16:10.761Z,5.72
2019-03-30T03:17:10.852Z,5.73
2019-03-30T03:18:10.711Z,5.65
2019-03-30T03:19:10.937Z,5.69
2019-03-30T03:20:10.680Z,5.70
2019-03-30T03:21:10.741Z,5.69
2019-03-30T03:22:10.671Z,5.65
2019-03-30T03:24:10.576Z,5.70
2019-03-30T03:25:10.542Z,5.62
2019-03-30T03:26:10.826Z,5.66
2019-03-30T03:27:10.608Z,5.67
2019-03-30T03:29:10.446Z,5.72
2019-03-30T03:30:10.423Z,5.65
2019-03-30T03:31:10.552Z,5.65
2019-03-30T03:33:10.432Z,5.58
2019-03-30T03:34:10.582Z,5.58
2019-03-30T03:35:10.309Z,5.48
2019-03-30T03:36:10.279Z,5.50
2019-03-30T03:37:10.251Z,5.41
2019-03-30T03:38:10.225Z,5.27
2019-03-30T03:39:10.204Z,5.32
2019-03-30T03:40:10.223Z,5.29
2019-03-30T03:41:10.462Z,5.25
2019-03-30T03:42:10.143Z,5.14
2019-03-30T03:43:10.214Z,5.11
2019-03-30T03:44:10.083Z,5.07
2019-03-30T03:45:10.118Z,4.97
2019-03-30T03:46:10.041Z,4.97
2019-03-30T03:47:10.016Z,4.93
2019-03-30T03:48:10.312Z,4.94
2019-03-30T03:50:09.944Z,4.89
2019-03-30T03:51:24.809Z,4.86
2019-03-30T03:52:09.901Z,4.88
2019-03-30T03:53:09.881Z,4.88
2019-03-30T03:54:09.872Z,4.89
2019-03-30T03:55:10.091Z,4.86
2019-03-30T03:56:09.807Z,4.88
2019-03-30T03:57:09.779Z,4.82
2019-03-30T03:58:09.762Z,4.91
2019-03-30T04:01:09.684Z,4.97
2019-03-30T04:02:09.950Z,4.97
2019-03-30T04:03:09.650Z,4.83
2019-03-30T04:04:09.603Z,4.93
2019-03-30T04:05:09.575Z,5.03
2019-03-30T04:06:09.558Z,5.07
2019-03-30T04:07:09.529Z,5.01
2019-03-30T04:08:10.068Z,5.44
2019-03-30T04:09:09.489Z,5.57
2019-03-30T04:10:09.827Z,5.54
2019-03-30T04:11:09.434Z,5.54
2019-03-30T04:12:09.519Z,5.58
2019-03-30T04:14:09.392Z,5.44
2019-03-30T04:15:09.639Z,5.47
2019-03-30T04:16:09.318Z,5.43
2019-03-30T04:17:09.290Z,5.44
2019-03-30T04:18:09.263Z,5.41
2019-03-30T04:20:09.216Z,5.58
2019-03-30T04:21:09.446Z,5.50
2019-03-30T04:22:09.165Z,5.48
2019-03-30T04:23:09.153Z,5.33
2019-03-30T04:24:09.118Z,5.29
2019-03-30T04:25:09.095Z,5.24
2019-03-30T04:26:09.072Z,5.24
2019-03-30T04:27:09.349Z,5.12
2019-03-30T04:28:09.027Z,5.14
2019-03-30T04:31:09.025Z,5.27
2019-03-30T04:32:08.933Z,5.34
2019-03-30T04:33:09.320Z,5.41
2019-03-30T04:35:08.858Z,5.67
2019-03-30T04:36:09.135Z,5.66
2019-03-30T04:37:08.812Z,5.73
2019-03-30T04:38:08.882Z,5.76
2019-03-30T04:39:08.779Z,5.93
2019-03-30T04:40:08.998Z,5.98
2019-03-30T04:41:08.814Z,6.00
2019-03-30T04:42:08.690Z,6.02
2019-03-30T04:43:08.661Z,6.09
2019-03-30T04:44:08.640Z,6.18
2019-03-30T04:45:08.611Z,6.15
2019-03-30T04:46:08.691Z,6.24
2019-03-30T04:47:08.864Z,6.31
2019-03-30T04:49:08.525Z,6.40
2019-03-30T04:50:08.629Z,6.35
2019-03-30T04:52:08.452Z,6.38
2019-03-30T04:53:08.422Z,6.47
2019-03-30T04:54:08.651Z,6.37
2019-03-30T04:58:09.427Z,6.45
2019-03-30T04:59:08.286Z,6.45
2019-03-30T05:00:08.361Z,6.52
2019-03-30T05:01:08.541Z,6.49
2019-03-30T05:02:08.346Z,6.50
2019-03-30T05:03:08.188Z,6.55
2019-03-30T05:04:08.166Z,6.63
2019-03-30T05:05:08.195Z,6.53
2019-03-30T05:06:08.109Z,6.49
2019-03-30T05:07:08.104Z,6.47
2019-03-30T05:08:08.370Z,6.53
2019-03-30T05:09:08.147Z,6.52
2019-03-30T05:10:08.018Z,6.50
2019-03-30T05:11:08.009Z,6.52
2019-03-30T05:12:08.070Z,6.45
2019-03-30T05:13:07.965Z,6.49
2019-03-30T05:14:08.081Z,6.57
2019-03-30T05:15:08.782Z,6.67
2019-03-30T05:16:08.011Z,6.57
2019-03-30T05:17:07.900Z,6.56
2019-03-30T05:18:07.844Z,6.64
2019-03-30T05:19:07.814Z,6.75
2019-03-30T05:20:07.794Z,6.70
2019-03-30T05:21:08.142Z,6.75
2019-03-30T05:23:07.714Z,6.93
2019-03-30T05:24:07.800Z,6.89
2019-03-30T05:25:07.684Z,6.88
2019-03-30T05:26:07.658Z,7.03
2019-03-30T05:27:07.628Z,7.03
2019-03-30T05:28:07.960Z,7.13
2019-03-30T05:29:07.595Z,7.13
2019-03-30T05:30:07.556Z,7.16
2019-03-30T05:32:07.509Z,7.13
2019-03-30T05:34:07.467Z,7.11
2019-03-30T05:35:07.826Z,7.18
2019-03-30T05:37:07.377Z,7.18
2019-03-30T05:38:07.355Z,7.16
2019-03-30T05:40:07.448Z,7.11
2019-03-30T05:41:07.617Z,7.28
2019-03-30T05:42:07.273Z,7.33
2019-03-30T05:43:07.358Z,7.25
2019-03-30T05:44:07.225Z,7.33
2019-03-30T05:45:07.668Z,7.33
2019-03-30T05:46:07.221Z,7.28
2019-03-30T05:47:07.454Z,7.25
2019-03-30T05:48:07.170Z,7.31
2019-03-30T05:49:07.200Z,7.33
2019-03-30T05:50:07.077Z,7.34
2019-03-30T05:53:07.003Z,7.39
2019-03-30T05:54:07.281Z,7.40
2019-03-30T05:55:07.066Z,7.50
2019-03-30T05:56:06.950Z,7.46
2019-03-30T05:57:06.936Z,7.50
2019-03-30T06:00:06.865Z,7.52
2019-03-30T06:01:07.128Z,7.58
2019-03-30T06:02:06.811Z,7.54
2019-03-30T06:03:07.120Z,7.52
2019-03-30T06:05:06.827Z,7.71
2019-03-30T06:06:06.702Z,7.68
2019-03-30T06:08:06.660Z,7.78
2019-03-30T06:11:06.595Z,7.87
2019-03-30T06:12:06.569Z,7.92
2019-03-30T06:13:06.565Z,7.91
2019-03-30T06:15:06.502Z,8.12
2019-03-30T06:17:06.461Z,8.29
2019-03-30T06:19:06.516Z,8.38
2019-03-30T06:20:06.464Z,8.35
2019-03-30T06:23:06.328Z,8.53
2019-03-30T06:26:06.625Z,8.63
2019-03-30T06:28:06.214Z,8.77
2019-03-30T06:29:06.196Z,8.90
2019-03-30T06:30:06.269Z,8.96
2019-03-30T06:31:06.140Z,9.03
2019-03-30T06:32:06.123Z,9.14
2019-03-30T06:33:06.436Z,9.09
2019-03-30T06:34:06.069Z,9.14
2019-03-30T06:35:06.050Z,9.14
2019-03-30T06:36:06.031Z,9.14
2019-03-30T06:37:06.005Z,9.27
2019-03-30T06:38:05.983Z,9.26
2019-03-30T06:39:05.968Z,9.41
2019-03-30T06:40:06.193Z,9.44
2019-03-30T06:41:05.936Z,9.42
2019-03-30T06:42:05.900Z,9.55
2019-03-30T06:43:07.685Z,9.59
2019-03-30T06:44:05.892Z,9.57
2019-03-30T06:45:05.825Z,9.60
2019-03-30T06:47:06.040Z,9.81
2019-03-30T06:48:05.863Z,9.91
2019-03-30T06:49:05.795Z,9.93
2019-03-30T06:50:05.737Z,10.01
2019-03-30T06:51:05.704Z,10.02
2019-03-30T06:52:05.677Z,10.09
2019-03-30T06:53:05.965Z,10.16
2019-03-30T06:54:05.640Z,10.18
2019-03-30T06:55:05.641Z,10.21
2019-03-30T06:58:05.565Z,10.34
2019-03-30T06:59:06.002Z,10.54
2019-03-30T07:00:05.504Z,10.58
2019-03-30T07:01:05.490Z,10.58
2019-03-30T07:02:05.495Z,10.65
2019-03-30T07:03:05.445Z,10.76
2019-03-30T07:04:05.446Z,10.80
2019-03-30T07:05:05.708Z,10.82
2019-03-30T07:06:05.377Z,10.80
2019-03-30T07:07:05.371Z,11.01
2019-03-30T07:08:05.336Z,10.97
2019-03-30T07:09:05.336Z,11.09
2019-03-30T07:11:05.275Z,11.15
2019-03-30T07:13:05.889Z,11.22
2019-03-30T07:14:05.223Z,11.33
2019-03-30T07:15:05.189Z,11.30
2019-03-30T07:16:05.215Z,11.38
2019-03-30T07:17:05.193Z,11.38
2019-03-30T07:18:05.133Z,11.51
2019-03-30T07:19:05.422Z,11.52
2019-03-30T07:20:05.122Z,11.56
2019-03-30T07:21:05.076Z,11.59
2019-03-30T07:22:05.053Z,11.74
2019-03-30T07:23:11.606Z,11.80
2019-03-30T07:24:05.114Z,11.80
2019-03-30T07:25:05.004Z,11.89
2019-03-30T07:26:05.275Z,11.88
2019-03-30T07:27:04.952Z,12.03
2019-03-30T07:28:04.923Z,12.18
2019-03-30T07:29:04.903Z,12.38
2019-03-30T07:30:04.880Z,12.73
2019-03-30T07:31:04.920Z,13.13
2019-03-30T07:32:06.350Z,13.51
2019-03-30T07:33:05.133Z,14.04
2019-03-30T07:34:04.825Z,14.31
2019-03-30T07:35:04.786Z,14.30
2019-03-30T07:36:04.762Z,14.23
2019-03-30T07:37:04.751Z,14.52
2019-03-30T07:38:04.724Z,14.71
2019-03-30T07:39:04.708Z,15.05
2019-03-30T07:40:04.991Z,15.32
2019-03-30T07:41:04.676Z,15.30
2019-03-30T07:42:04.646Z,15.59
2019-03-30T07:43:04.631Z,15.33
2019-03-30T07:44:04.666Z,15.48
2019-03-30T07:45:04.619Z,15.59
2019-03-30T07:46:04.973Z,15.41
2019-03-30T07:47:05.001Z,15.50
2019-03-30T07:48:05.018Z,15.93
2019-03-30T07:49:04.657Z,15.91
2019-03-30T07:50:05.163Z,15.90
2019-03-30T07:51:04.583Z,15.87
2019-03-30T07:52:04.495Z,16.06
2019-03-30T07:53:04.462Z,16.16
2019-03-30T07:56:08.743Z,15.87
2019-03-30T07:57:12.332Z,15.69
2019-03-30T07:58:04.478Z,15.91
2019-03-30T07:59:04.409Z,16.28
2019-03-30T08:01:04.438Z,16.70
2019-03-30T08:02:04.743Z,16.92
2019-03-30T08:03:04.623Z,16.90
2019-03-30T08:05:04.256Z,16.88
2019-03-30T08:06:04.400Z,17.19
2019-03-30T08:07:04.232Z,17.22
2019-03-30T08:08:04.215Z,17.43
2019-03-30T08:09:04.498Z,17.10
2019-03-30T08:11:04.321Z,17.06
2019-03-30T08:12:04.282Z,16.99
2019-03-30T08:13:04.279Z,17.46
2019-03-30T08:14:04.141Z,17.93
2019-03-30T08:15:04.541Z,17.87
2019-03-30T08:17:04.546Z,18.17
2019-03-30T08:18:04.202Z,17.91
2019-03-30T08:19:04.108Z,18.34
2019-03-30T08:20:04.178Z,18.81
2019-03-30T08:21:04.536Z,19.04
2019-03-30T08:22:04.104Z,18.88
2019-03-30T08:24:03.966Z,18.98
2019-03-30T08:25:03.969Z,19.32
2019-03-30T08:26:04.092Z,19.38
2019-03-30T08:27:04.290Z,19.26
2019-03-30T08:28:04.045Z,19.07
2019-03-30T08:29:03.979Z,19.32
2019-03-30T08:30:03.934Z,19.31
2019-03-30T08:31:04.098Z,19.59
2019-03-30T08:33:04.342Z,19.12
2019-03-30T08:34:04.060Z,19.07
2019-03-30T08:35:03.818Z,19.22
2019-03-30T08:36:03.800Z,19.74
2019-03-30T08:37:03.818Z,19.54
2019-03-30T08:38:03.783Z,19.45
2019-03-30T08:40:03.886Z,19.50
2019-03-30T08:41:03.813Z,19.89
2019-03-30T08:42:03.785Z,20.12
2019-03-30T08:43:03.769Z,20.26
2019-03-30T08:44:03.829Z,20.42
2019-03-30T08:45:03.819Z,20.17
2019-03-30T08:46:03.796Z,20.32
2019-03-30T08:47:03.980Z,20.27
2019-03-30T08:48:03.666Z,20.74
2019-03-30T08:49:03.630Z,20.89
2019-03-30T08:50:03.638Z,20.90
2019-03-30T08:51:03.928Z,21.14
2019-03-30T08:52:03.616Z,20.70
2019-03-30T08:53:03.611Z,20.77
2019-03-30T08:55:03.589Z,20.53
2019-03-30T08:56:03.606Z,20.73
2019-03-30T08:57:03.552Z,20.93
2019-03-30T08:58:03.842Z,21.00
2019-03-30T09:00:03.645Z,20.55
2019-03-30T09:01:04.028Z,20.98
2019-03-30T09:02:03.638Z,21.10
2019-03-30T09:03:03.619Z,21.50
2019-03-30T09:04:03.684Z,21.51
2019-03-30T09:05:05.296Z,21.51
2019-03-30T09:06:03.616Z,21.98
2019-03-30T09:07:03.543Z,22.19
2019-03-30T09:08:03.500Z,22.12
2019-03-30T09:09:03.533Z,21.80
2019-03-30T09:10:03.527Z,21.77
2019-03-30T09:11:03.845Z,22.37
2019-03-30T09:12:03.797Z,22.16
2019-03-30T09:13:03.629Z,21.85
2019-03-30T09:14:03.485Z,21.93
2019-03-30T09:15:03.366Z,21.85
2019-03-30T09:16:03.393Z,22.16
2019-03-30T09:17:03.338Z,22.16
2019-03-30T09:18:03.326Z,22.06
2019-03-30T09:19:03.611Z,21.91
2019-03-30T09:20:03.318Z,21.85
2019-03-30T09:21:03.350Z,21.41
2019-03-30T09:22:03.272Z,22.21
2019-03-30T09:23:03.268Z,22.51
2019-03-30T09:24:09.938Z,23.22
2019-03-30T09:25:03.248Z,23.71
2019-03-30T09:26:03.557Z,23.28
2019-03-30T09:27:04.108Z,22.92
2019-03-30T09:28:03.227Z,22.98
2019-03-30T09:29:03.318Z,22.21
2019-03-30T09:31:03.211Z,22.28
2019-03-30T09:32:14.392Z,21.81
2019-03-30T09:33:03.181Z,22.13
2019-03-30T09:34:03.573Z,22.48
2019-03-30T09:35:03.191Z,22.99
2019-03-30T09:36:03.486Z,23.10
2019-03-30T09:37:03.234Z,22.88
2019-03-30T09:38:03.348Z,22.55
2019-03-30T09:39:03.484Z,21.88
2019-03-30T09:40:03.109Z,21.65
2019-03-30T09:42:03.123Z,21.53
2019-03-30T09:43:03.091Z,21.66
2019-03-30T09:44:03.080Z,21.23
2019-03-30T09:45:03.371Z,21.88
2019-03-30T09:46:03.061Z,21.85
2019-03-30T09:47:03.130Z,21.98
2019-03-30T09:48:03.072Z,21.30
2019-03-30T09:49:03.037Z,21.37
2019-03-30T09:50:03.137Z,21.19
2019-03-30T09:52:03.333Z,21.08
2019-03-30T09:53:03.004Z,21.07
2019-03-30T09:54:03.108Z,21.58
2019-03-30T09:55:03.007Z,21.75
2019-03-30T09:56:02.992Z,21.45
2019-03-30T09:57:03.009Z,21.48
2019-03-30T09:58:02.958Z,21.41
2019-03-30T09:59:03.052Z,21.28
2019-03-30T10:00:03.053Z,21.45
2019-03-30T10:01:02.946Z,21.55
2019-03-30T10:02:02.981Z,21.81
2019-03-30T10:03:05.897Z,21.84
2019-03-30T10:04:03.168Z,21.85
2019-03-30T10:05:02.906Z,21.38
2019-03-30T10:08:03.109Z,20.75
2019-03-30T10:09:03.641Z,21.32
2019-03-30T10:10:03.179Z,21.07
2019-03-30T10:11:02.901Z,21.22
2019-03-30T10:12:02.879Z,21.20
2019-03-30T10:13:02.846Z,21.71
2019-03-30T10:14:02.832Z,21.67
2019-03-30T10:15:02.827Z,22.04
2019-03-30T10:16:03.118Z,21.75
2019-03-30T10:17:02.837Z,21.77
2019-03-30T10:18:02.820Z,21.73
2019-03-30T10:19:02.822Z,20.79
2019-03-30T10:20:04.742Z,20.74
2019-03-30T10:21:02.793Z,21.03
2019-03-30T10:22:03.058Z,21.04
2019-03-30T10:24:02.749Z,20.48
2019-03-30T10:25:02.747Z,20.02
2019-03-30T10:26:02.790Z,20.29
2019-03-30T10:27:02.724Z,20.88
2019-03-30T10:29:09.239Z,20.27
2019-03-30T10:30:02.722Z,20.07
2019-03-30T10:31:02.705Z,20.36
2019-03-30T10:33:02.687Z,21.40
2019-03-30T10:34:02.661Z,20.90
2019-03-30T10:35:02.659Z,21.47
2019-03-30T10:37:02.654Z,22.19
2019-03-30T10:38:02.661Z,21.94
2019-03-30T10:39:02.631Z,22.01
2019-03-30T10:40:02.609Z,21.48
2019-03-30T10:41:02.600Z,21.20
2019-03-30T10:42:02.599Z,21.19
2019-03-30T10:43:02.691Z,21.66
2019-03-30T10:44:02.584Z,22.15
2019-03-30T10:45:02.585Z,22.19
2019-03-30T10:46:02.559Z,22.03
2019-03-30T10:47:02.549Z,22.16
2019-03-30T10:48:02.850Z,21.28
2019-03-30T10:49:02.559Z,21.55
2019-03-30T10:50:02.543Z,22.12
2019-03-30T10:52:02.519Z,21.14
2019-03-30T10:53:02.527Z,21.00
2019-03-30T10:54:02.518Z,21.03
2019-03-30T10:55:02.821Z,20.48
2019-03-30T10:56:02.491Z,20.50
2019-03-30T10:57:02.471Z,20.04
2019-03-30T10:58:02.510Z,20.05
2019-03-30T10:59:02.468Z,19.99
2019-03-30T11:00:02.461Z,20.27
2019-03-30T11:01:02.447Z,20.29
2019-03-30T11:02:02.696Z,21.13
2019-03-30T11:03:02.448Z,20.98
2019-03-30T11:04:02.421Z,20.50
2019-03-30T11:05:02.425Z,20.30
2019-03-30T11:06:02.431Z,20.46
2019-03-30T11:07:02.397Z,20.11
2019-03-30T11:08:02.631Z,20.56
2019-03-30T11:09:02.410Z,21.22
2019-03-30T11:10:02.392Z,21.26
2019-03-30T11:11:02.381Z,20.67
2019-03-30T11:12:02.361Z,21.28
2019-03-30T11:13:02.344Z,21.19
2019-03-30T11:14:03.501Z,21.53
2019-03-30T11:15:02.638Z,21.58
2019-03-30T11:16:02.322Z,21.40
2019-03-30T11:17:02.315Z,21.69
2019-03-30T11:18:02.325Z,21.97
2019-03-30T11:19:02.340Z,21.98
2019-03-30T11:20:02.294Z,22.49
2019-03-30T11:21:02.550Z,22.98
2019-03-30T11:22:03.409Z,22.61
2019-03-30T11:23:02.384Z,22.41
2019-03-30T11:24:02.310Z,22.07
2019-03-30T11:25:07.867Z,21.96
2019-03-30T11:26:02.260Z,22.13
2019-03-30T11:27:02.558Z,22.01
2019-03-30T11:28:02.243Z,21.84
2019-03-30T11:29:02.225Z,22.33
2019-03-30T11:30:02.328Z,21.65
2019-03-30T11:31:05.250Z,21.63
2019-03-30T11:33:02.504Z,20.90
2019-03-30T11:34:02.228Z,20.74
2019-03-30T11:35:02.203Z,20.98
2019-03-30T11:36:02.201Z,21.25
2019-03-30T11:38:02.179Z,21.96
2019-03-30T11:39:02.175Z,22.25
2019-03-30T11:40:02.463Z,22.31
2019-03-30T11:41:02.177Z,21.91
2019-03-30T11:42:02.157Z,21.71
2019-03-30T11:43:02.125Z,21.84
2019-03-30T11:44:02.118Z,22.15
2019-03-30T11:45:02.108Z,21.77
2019-03-30T11:46:02.102Z,21.59
2019-03-30T11:47:02.095Z,21.07
2019-03-30T11:48:02.084Z,20.34
2019-03-30T11:49:02.074Z,20.74
2019-03-30T11:50:02.073Z,21.10
2019-03-30T11:51:02.093Z,21.04
2019-03-30T11:52:02.375Z,21.13
2019-03-30T11:53:02.054Z,21.18
2019-03-30T11:54:02.047Z,21.38
2019-03-30T11:55:02.075Z,20.74
2019-03-30T11:56:02.023Z,21.08
2019-03-30T11:57:02.016Z,21.43
2019-03-30T11:58:02.254Z,21.51
2019-03-30T11:59:02.015Z,22.21
2019-03-30T12:00:02.022Z,22.01
2019-03-30T12:01:02.033Z,21.82
2019-03-30T12:02:02.057Z,21.53
2019-03-30T12:04:02.260Z,22.61
2019-03-30T12:05:01.957Z,22.93
2019-03-30T12:06:01.957Z,22.92
2019-03-30T12:07:01.942Z,22.28
2019-03-30T12:08:01.984Z,22.31
2019-03-30T12:09:01.932Z,22.51
2019-03-30T12:10:01.972Z,22.03
2019-03-30T12:11:02.260Z,21.66
2019-03-30T12:12:01.946Z,21.75
2019-03-30T12:13:01.912Z,21.45
2019-03-30T12:14:01.943Z,21.32
2019-03-30T12:15:01.884Z,21.71
2019-03-30T12:16:01.897Z,21.75
2019-03-30T12:17:02.037Z,21.73
2019-03-30T12:18:02.102Z,21.77
2019-03-30T12:19:01.849Z,21.66
2019-03-30T12:20:01.927Z,22.25
2019-03-30T12:21:01.849Z,22.98
2019-03-30T12:22:01.830Z,22.68
2019-03-30T12:23:01.843Z,23.01
2019-03-30T12:24:01.826Z,22.23
2019-03-30T12:25:02.132Z,22.48
2019-03-30T12:26:01.935Z,22.86
2019-03-30T12:27:01.797Z,23.13
2019-03-30T12:28:02.369Z,23.01
2019-03-30T12:29:02.682Z,22.89
2019-03-30T12:31:05.423Z,23.01
2019-03-30T12:32:03.012Z,22.41
2019-03-30T12:33:02.291Z,21.67
2019-03-30T12:34:02.574Z,22.33
2019-03-30T12:35:01.762Z,22.07
2019-03-30T12:37:02.076Z,21.78
2019-03-30T12:38:01.739Z,22.22
2019-03-30T12:39:01.762Z,22.83
2019-03-30T12:40:01.817Z,22.77
2019-03-30T12:41:01.723Z,22.88
2019-03-30T12:42:01.690Z,23.21
2019-03-30T12:43:01.688Z,23.63
2019-03-30T12:44:02.120Z,23.29
2019-03-30T12:45:01.845Z,22.89
2019-03-30T12:47:01.687Z,23.34
2019-03-30T12:48:01.766Z,23.33
2019-03-30T12:51:03.204Z,22.44
2019-03-30T12:52:03.138Z,22.58
2019-03-30T12:53:01.614Z,22.64
2019-03-30T12:54:01.645Z,22.34
2019-03-30T12:55:01.704Z,22.77
2019-03-30T12:56:01.626Z,23.42
2019-03-30T12:57:01.674Z,23.51
2019-03-30T12:58:01.896Z,22.77
2019-03-30T12:59:01.977Z,22.36
2019-03-30T13:00:01.623Z,21.65
2019-03-30T13:01:01.574Z,21.56
2019-03-30T13:02:01.576Z,21.75
2019-03-30T13:03:01.556Z,21.65
2019-03-30T13:04:01.855Z,22.58
2019-03-30T13:05:01.556Z,22.30
2019-03-30T13:06:01.535Z,22.33
2019-03-30T13:07:01.533Z,22.55
2019-03-30T13:09:01.529Z,22.40
2019-03-30T13:10:01.533Z,22.98
2019-03-30T13:11:01.958Z,22.93
2019-03-30T13:12:01.515Z,22.93
2019-03-30T13:14:01.552Z,23.67
2019-03-30T13:15:01.471Z,23.04
2019-03-30T13:16:01.533Z,22.73
2019-03-30T13:17:01.842Z,21.28
2019-03-30T13:18:01.452Z,21.98
2019-03-30T13:19:01.771Z,22.30
2019-03-30T13:22:01.466Z,21.93
2019-03-30T13:23:01.741Z,21.88
2019-03-30T13:24:01.541Z,22.00
2019-03-30T13:25:01.478Z,22.41
2019-03-30T13:26:03.892Z,22.12
2019-03-30T13:27:01.529Z,21.93
2019-03-30T13:28:01.383Z,22.37
2019-03-30T13:29:01.686Z,22.49
2019-03-30T13:30:01.389Z,22.77
2019-03-30T13:31:01.383Z,22.86
2019-03-30T13:32:01.385Z,22.58
2019-03-30T13:33:01.530Z,21.53
2019-03-30T13:34:01.442Z,21.78
2019-03-30T13:36:01.555Z,21.91
2019-03-30T13:37:01.533Z,21.84
2019-03-30T13:38:01.295Z,21.32
2019-03-30T13:39:01.282Z,21.19
2019-03-30T13:40:01.388Z,21.34
2019-03-30T13:41:01.284Z,20.73
2019-03-30T13:42:01.564Z,20.23
2019-03-30T13:43:01.276Z,20.12
2019-03-30T13:44:01.243Z,20.50
2019-03-30T13:45:03.409Z,20.49
2019-03-30T13:46:01.657Z,20.30
2019-03-30T13:47:01.211Z,20.15
2019-03-30T13:48:01.205Z,20.09
2019-03-30T13:49:01.545Z,20.86
2019-03-30T13:50:01.215Z,21.25
2019-03-30T13:51:01.178Z,22.03
2019-03-30T13:52:01.245Z,22.12
2019-03-30T13:53:01.218Z,22.01
2019-03-30T13:54:01.142Z,22.25
2019-03-30T13:55:01.239Z,22.61
2019-03-30T13:56:01.433Z,23.03
2019-03-30T13:57:01.135Z,22.04
2019-03-30T13:58:01.139Z,22.34
2019-03-30T14:00:01.108Z,21.97
2019-03-30T14:01:01.134Z,21.35
2019-03-30T14:02:01.920Z,21.43
2019-03-30T14:03:03.294Z,21.71
2019-03-30T14:04:01.257Z,21.84
2019-03-30T14:05:01.377Z,22.22
2019-03-30T14:06:01.113Z,22.25
2019-03-30T14:07:01.055Z,22.27
2019-03-30T14:08:01.035Z,21.84
2019-03-30T14:10:01.313Z,22.11
2019-03-30T14:11:01.035Z,21.93
2019-03-30T14:12:01.011Z,21.84
2019-03-30T14:13:00.979Z,21.45
2019-03-30T14:14:00.960Z,21.97
2019-03-30T14:15:01.117Z,22.43
2019-03-30T14:16:01.031Z,22.70
2019-03-30T14:17:01.249Z,21.75
2019-03-30T14:18:01.084Z,22.21
2019-03-30T14:19:00.929Z,21.58
2019-03-30T14:20:01.010Z,20.77
2019-03-30T14:21:00.969Z,20.48
2019-03-30T14:22:00.918Z,20.15
2019-03-30T14:23:00.957Z,20.29
2019-03-30T14:24:01.222Z,20.33
2019-03-30T14:28:00.845Z,20.58
2019-03-30T14:29:00.841Z,21.25
2019-03-30T14:30:01.169Z,21.81
2019-03-30T14:31:00.829Z,22.07
2019-03-30T14:32:00.792Z,22.15
2019-03-30T14:33:00.812Z,22.27
2019-03-30T14:34:00.832Z,22.28
2019-03-30T14:35:00.770Z,22.59
2019-03-30T14:36:01.064Z,22.44
2019-03-30T14:37:00.743Z,21.93
2019-03-30T14:38:00.743Z,22.12
2019-03-30T14:39:00.727Z,21.97
2019-03-30T14:40:00.722Z,21.80
2019-03-30T14:43:01.002Z,21.75
2019-03-30T14:44:00.775Z,21.60
2019-03-30T14:45:00.666Z,21.38
2019-03-30T14:46:00.656Z,21.41
2019-03-30T14:47:00.668Z,21.51
2019-03-30T14:48:02.144Z,21.53
2019-03-30T14:49:00.994Z,21.40
2019-03-30T14:50:00.628Z,21.35
2019-03-30T14:51:00.603Z,20.85
2019-03-30T14:53:01.854Z,20.73
2019-03-30T14:54:01.831Z,20.90
2019-03-30T14:55:01.641Z,21.11
2019-03-30T14:56:00.843Z,20.70
2019-03-30T14:57:00.687Z,21.14
2019-03-30T14:58:00.608Z,21.25
2019-03-30T14:59:09.993Z,20.90
2019-03-30T15:00:00.869Z,21.03
2019-03-30T15:01:03.351Z,20.32
2019-03-30T15:03:00.576Z,20.19
2019-03-30T15:04:00.495Z,20.02
2019-03-30T15:05:01.164Z,19.99
2019-03-30T15:06:00.479Z,19.87